sensor_id;sensor_type;location;lat;lon;timestamp;pressure;altitude;pressure_sealevel;temperature;humidity
58975;BME280;44751;52.236;5.178;2023-01-13T00:00:49;100102.41;;;8.16;100.00
58975;BME280;44751;52.236;5.178;2023-01-13T00:03:15;100074.69;;;8.00;100.00
58975;BME280;44751;52.236;5.178;2023-01-13T00:05:43;100074.56;;;7.94;100.00
58975;BME280;44751;52.236;5.178;2023-01-13T00:08:09;100074.56;;;7.94;100.00
58975;BME280;44751;52.236;5.178;2023-01-13T00:10:36;100085.66;;;7.91;100.00
58975;BME280;44751;52.236;5.178;2023-01-13T00:13:03;100084.13;;;7.73;100.00
58975;BME280;44751;52.236;5.178;2023-01-13T00:15:31;100074.25;;;7.73;100.00
58975;BME280;44751;52.236;5.178;2023-01-13T00:17:57;100070.38;;;7.76;100.00
58975;BME280;44751;52.236;5.178;2023-01-13T00:20:26;100074.00;;;7.60;100.00
58975;BME280;44751;52.236;5.178;2023-01-13T00:22:52;100071.47;;;7.58;100.00
58975;BME280;44751;52.236;5.178;2023-01-13T00:25:20;100077.63;;;7.67;100.00
58975;BME280;44751;52.236;5.178;2023-01-13T00:27:46;100066.00;;;7.52;100.00
58975;BME280;44751;52.236;5.178;2023-01-13T00:30:13;100077.06;;;7.57;100.00
58975;BME280;44751;52.236;5.178;2023-01-13T00:32:40;100062.50;;;7.51;100.00
58975;BME280;44751;52.236;5.178;2023-01-13T00:35:06;100065.59;;;7.63;100.00
58975;BME280;44751;52.236;5.178;2023-01-13T00:37:36;100063.44;;;7.58;100.00
58975;BME280;44751;52.236;5.178;2023-01-13T00:40:04;100061.31;;;7.54;100.00
58975;BME280;44751;52.236;5.178;2023-01-13T00:42:30;100071.03;;;7.55;100.00
58975;BME280;44751;52.236;5.178;2023-01-13T00:45:14;100055.63;;;7.48;100.00
58975;BME280;44751;52.236;5.178;2023-01-13T00:47:41;100042.94;;;7.42;100.00
58975;BME280;44751;52.236;5.178;2023-01-13T00:50:08;100038.41;;;7.43;100.00
58975;BME280;44751;52.236;5.178;2023-01-13T00:52:34;100031.06;;;7.36;100.00
58975;BME280;44751;52.236;5.178;2023-01-13T00:55:01;100030.81;;;7.23;100.00
58975;BME280;44751;52.236;5.178;2023-01-13T00:57:27;100028.13;;;7.23;100.00
58975;BME280;44751;52.236;5.178;2023-01-13T00:59:54;100038.13;;;7.29;100.00
58975;BME280;44751;52.236;5.178;2023-01-13T01:02:20;100032.03;;;7.12;100.00
58975;BME280;44751;52.236;5.178;2023-01-13T01:04:47;100035.22;;;7.39;100.00
58975;BME280;44751;52.236;5.178;2023-01-13T01:07:16;100033.31;;;7.48;100.00
58975;BME280;44751;52.236;5.178;2023-01-13T01:09:42;100015.47;;;7.32;100.00
58975;BME280;44751;52.236;5.178;2023-01-13T01:12:09;100006.78;;;7.30;100.00
58975;BME280;44751;52.236;5.178;2023-01-13T01:14:35;100014.66;;;7.31;100.00
58975;BME280;44751;52.236;5.178;2023-01-13T01:17:01;100007.06;;;7.35;100.00
58975;BME280;44751;52.236;5.178;2023-01-13T01:19:28;100010.13;;;7.32;100.00
58975;BME280;44751;52.236;5.178;2023-01-13T01:21:55;100012.56;;;7.42;100.00
58975;BME280;44751;52.236;5.178;2023-01-13T01:24:21;100025.50;;;7.38;100.00
58975;BME280;44751;52.236;5.178;2023-01-13T01:26:47;100039.22;;;7.43;100.00
58975;BME280;44751;52.236;5.178;2023-01-13T01:29:15;100033.50;;;7.46;100.00
58975;BME280;44751;52.236;5.178;2023-01-13T01:31:42;100041.91;;;7.43;100.00
58975;BME280;44751;52.236;5.178;2023-01-13T01:34:09;100052.63;;;7.43;100.00
58975;BME280;44751;52.236;5.178;2023-01-13T01:36:35;100058.84;;;7.67;100.00
58975;BME280;44751;52.236;5.178;2023-01-13T01:39:02;100055.75;;;7.55;100.00
58975;BME280;44751;52.236;5.178;2023-01-13T01:41:31;100059.59;;;7.61;100.00
58975;BME280;44751;52.236;5.178;2023-01-13T01:44:00;100043.22;;;7.47;100.00
58975;BME280;44751;52.236;5.178;2023-01-13T01:46:27;100048.22;;;7.51;100.00
58975;BME280;44751;52.236;5.178;2023-01-13T01:48:59;100037.44;;;7.59;100.00
58975;BME280;44751;52.236;5.178;2023-01-13T01:51:30;100036.00;;;7.48;100.00
58975;BME280;44751;52.236;5.178;2023-01-13T01:53:59;100031.59;;;7.55;100.00
58975;BME280;44751;52.236;5.178;2023-01-13T01:56:31;100017.81;;;7.35;100.00
58975;BME280;44751;52.236;5.178;2023-01-13T01:58:58;100034.16;;;7.48;100.00
58975;BME280;44751;52.236;5.178;2023-01-13T02:01:25;100028.13;;;7.46;100.00
58975;BME280;44751;52.236;5.178;2023-01-13T02:03:58;100017.81;;;7.35;100.00
58975;BME280;44751;52.236;5.178;2023-01-13T02:06:29;100029.06;;;7.30;100.00
58975;BME280;44751;52.236;5.178;2023-01-13T02:08:57;100034.44;;;7.30;100.00
58975;BME280;44751;52.236;5.178;2023-01-13T02:11:32;100033.28;;;7.33;100.00
58975;BME280;44751;52.236;5.178;2023-01-13T02:14:18;100033.09;;;7.34;100.00
58975;BME280;44751;52.236;5.178;2023-01-13T02:17:32;100035.41;;;7.38;100.00
58975;BME280;44751;52.236;5.178;2023-01-13T02:30:41;100004.44;;;7.50;100.00
58975;BME280;44751;52.236;5.178;2023-01-13T02:33:50;99998.38;;;7.56;100.00
58975;BME280;44751;52.236;5.178;2023-01-13T02:36:33;99998.53;;;7.55;100.00
58975;BME280;44751;52.236;5.178;2023-01-13T02:39:22;99988.84;;;7.54;100.00
58975;BME280;44751;52.236;5.178;2023-01-13T02:41:56;99975.22;;;7.55;100.00
58975;BME280;44751;52.236;5.178;2023-01-13T02:44:50;99981.59;;;7.54;100.00
58975;BME280;44751;52.236;5.178;2023-01-13T02:47:22;99983.47;;;7.54;100.00
58975;BME280;44751;52.236;5.178;2023-01-13T02:49:59;99983.91;;;7.57;100.00
58975;BME280;44751;52.236;5.178;2023-01-13T02:52:35;99983.47;;;7.54;100.00
58975;BME280;44751;52.236;5.178;2023-01-13T02:55:10;99985.97;;;7.55;100.00
58975;BME280;44751;52.236;5.178;2023-01-13T02:57:39;99992.72;;;7.51;100.00
58975;BME280;44751;52.236;5.178;2023-01-13T03:00:09;99994.38;;;7.52;100.00
58975;BME280;44751;52.236;5.178;2023-01-13T03:02:36;99986.84;;;7.47;100.00
58975;BME280;44751;52.236;5.178;2023-01-13T03:05:04;99981.38;;;7.41;100.00
58975;BME280;44751;52.236;5.178;2023-01-13T03:07:49;99987.34;;;7.51;100.00
58975;BME280;44751;52.236;5.178;2023-01-13T03:10:37;99994.03;;;7.55;100.00
58975;BME280;44751;52.236;5.178;2023-01-13T03:13:13;99989.72;;;7.46;100.00
58975;BME280;44751;52.236;5.178;2023-01-13T03:16:07;99992.72;;;7.51;100.00
58975;BME280;44751;52.236;5.178;2023-01-13T03:21:34;99999.25;;;7.48;100.00
58975;BME280;44751;52.236;5.178;2023-01-13T03:24:12;99988.91;;;7.45;100.00
58975;BME280;44751;52.236;5.178;2023-01-13T03:26:52;99981.19;;;7.42;100.00
58975;BME280;44751;52.236;5.178;2023-01-13T03:29:31;100003.75;;;7.56;100.00
58975;BME280;44751;52.236;5.178;2023-01-13T03:32:07;99991.25;;;7.40;100.00
58975;BME280;44751;52.236;5.178;2023-01-13T03:34:46;99997.31;;;7.42;100.00
58975;BME280;44751;52.236;5.178;2023-01-13T03:37:16;99981.56;;;7.39;100.00
58975;BME280;44751;52.236;5.178;2023-01-13T03:39:52;99983.81;;;7.51;100.00
58975;BME280;44751;52.236;5.178;2023-01-13T03:42:23;99969.09;;;7.46;100.00
58975;BME280;44751;52.236;5.178;2023-01-13T03:44:58;99983.28;;;7.32;100.00
58975;BME280;44751;52.236;5.178;2023-01-13T03:50:02;99987.66;;;7.33;100.00
58975;BME280;44751;52.236;5.178;2023-01-13T03:52:35;99975.78;;;7.27;100.00
58975;BME280;44751;52.236;5.178;2023-01-13T03:55:13;99980.50;;;7.25;100.00
58975;BME280;44751;52.236;5.178;2023-01-13T03:57:51;99989.50;;;7.32;100.00
58975;BME280;44751;52.236;5.178;2023-01-13T04:00:28;99998.00;;;7.36;100.00
58975;BME280;44751;52.236;5.178;2023-01-13T04:03:03;99995.31;;;7.36;100.00
58975;BME280;44751;52.236;5.178;2023-01-13T04:05:33;99980.78;;;7.30;100.00
58975;BME280;44751;52.236;5.178;2023-01-13T04:08:13;99992.47;;;7.38;100.00
58975;BME280;44751;52.236;5.178;2023-01-13T04:11:02;99988.47;;;7.33;100.00
58975;BME280;44751;52.236;5.178;2023-01-13T04:13:34;99989.84;;;7.29;100.00
58975;BME280;44751;52.236;5.178;2023-01-13T04:16:04;99994.97;;;7.39;100.00
58975;BME280;44751;52.236;5.178;2023-01-13T04:18:32;99983.59;;;7.37;100.00
58975;BME280;44751;52.236;5.178;2023-01-13T04:21:00;99991.34;;;7.32;100.00
58975;BME280;44751;52.236;5.178;2023-01-13T04:23:27;99994.97;;;7.39;100.00
58975;BME280;44751;52.236;5.178;2023-01-13T04:25:57;99985.16;;;7.31;100.00
58975;BME280;44751;52.236;5.178;2023-01-13T04:28:25;99981.91;;;7.36;100.00
58975;BME280;44751;52.236;5.178;2023-01-13T04:30:51;99987.16;;;7.29;100.00
58975;BME280;44751;52.236;5.178;2023-01-13T04:33:18;99976.66;;;7.19;100.00
58975;BME280;44751;52.236;5.178;2023-01-13T04:35:45;99980.72;;;7.15;100.00
58975;BME280;44751;52.236;5.178;2023-01-13T04:38:18;99973.16;;;7.19;100.00
58975;BME280;44751;52.236;5.178;2023-01-13T04:40:46;99987.94;;;7.15;100.00
58975;BME280;44751;52.236;5.178;2023-01-13T04:43:12;99996.69;;;7.08;100.00
58975;BME280;44751;52.236;5.178;2023-01-13T04:45:40;99995.16;;;7.14;100.00
58975;BME280;44751;52.236;5.178;2023-01-13T04:48:07;100015.38;;;7.25;100.00
58975;BME280;44751;52.236;5.178;2023-01-13T04:50:34;99990.75;;;7.21;100.00
58975;BME280;44751;52.236;5.178;2023-01-13T04:53:00;99985.09;;;7.16;100.00
58975;BME280;44751;52.236;5.178;2023-01-13T04:55:27;99991.88;;;7.27;100.00
58975;BME280;44751;52.236;5.178;2023-01-13T04:57:53;99973.69;;;7.14;100.00
58975;BME280;44751;52.236;5.178;2023-01-13T05:00:21;99979.84;;;7.23;100.00
58975;BME280;44751;52.236;5.178;2023-01-13T05:02:52;99970.53;;;7.10;100.00
58975;BME280;44751;52.236;5.178;2023-01-13T05:05:18;99978.94;;;7.07;100.00
58975;BME280;44751;52.236;5.178;2023-01-13T05:07:45;99971.69;;;7.16;100.00
58975;BME280;44751;52.236;5.178;2023-01-13T05:10:12;99973.53;;;7.16;100.00
58975;BME280;44751;52.236;5.178;2023-01-13T05:12:39;99978.03;;;7.15;100.00
58975;BME280;44751;52.236;5.178;2023-01-13T05:15:23;99986.59;;;7.19;100.00
58975;BME280;44751;52.236;5.178;2023-01-13T05:18:07;99968.72;;;7.26;100.00
58975;BME280;44751;52.236;5.178;2023-01-13T05:20:34;100005.72;;;7.16;100.00
58975;BME280;44751;52.236;5.178;2023-01-13T05:23:00;99982.22;;;7.18;100.00
58975;BME280;44751;52.236;5.178;2023-01-13T05:25:46;99978.16;;;7.22;100.00
58975;BME280;44751;52.236;5.178;2023-01-13T05:28:13;99969.00;;;7.16;100.00
58975;BME280;44751;52.236;5.178;2023-01-13T05:30:42;99974.72;;;7.13;100.00
58975;BME280;44751;52.236;5.178;2023-01-13T05:33:11;99975.72;;;7.12;100.00
58975;BME280;44751;52.236;5.178;2023-01-13T05:35:44;99978.22;;;7.14;100.00
58975;BME280;44751;52.236;5.178;2023-01-13T05:38:12;99976.38;;;7.14;100.00
58975;BME280;44751;52.236;5.178;2023-01-13T05:40:39;99986.53;;;7.27;100.00
58975;BME280;44751;52.236;5.178;2023-01-13T05:43:21;99993.19;;;7.31;100.00
58975;BME280;44751;52.236;5.178;2023-01-13T05:45:55;99987.47;;;7.34;100.00
58975;BME280;44751;52.236;5.178;2023-01-13T05:50:53;99995.31;;;7.36;100.00
58975;BME280;44751;52.236;5.178;2023-01-13T05:53:20;99986.75;;;7.41;100.00
58975;BME280;44751;52.236;5.178;2023-01-13T05:55:47;99991.94;;;7.42;100.00
58975;BME280;44751;52.236;5.178;2023-01-13T05:58:15;99990.09;;;7.43;100.00
58975;BME280;44751;52.236;5.178;2023-01-13T06:00:44;99985.91;;;7.40;100.00
58975;BME280;44751;52.236;5.178;2023-01-13T06:03:11;99994.44;;;7.44;100.00
58975;BME280;44751;52.236;5.178;2023-01-13T06:05:38;99996.22;;;7.52;100.00
58975;BME280;44751;52.236;5.178;2023-01-13T06:08:05;99987.16;;;7.53;100.00
58975;BME280;44751;52.236;5.178;2023-01-13T06:10:33;99971.25;;;7.51;100.00
58975;BME280;44751;52.236;5.178;2023-01-13T06:13:00;99991.50;;;7.54;100.00
58975;BME280;44751;52.236;5.178;2023-01-13T06:15:27;99973.16;;;7.42;100.00
58975;BME280;44751;52.236;5.178;2023-01-13T06:17:54;99982.09;;;7.58;100.00
58975;BME280;44751;52.236;5.178;2023-01-13T06:20:24;99983.28;;;7.55;100.00
58975;BME280;44751;52.236;5.178;2023-01-13T06:22:54;99980.47;;;7.48;100.00
58975;BME280;44751;52.236;5.178;2023-01-13T06:28:02;99995.00;;;7.54;100.00
58975;BME280;44751;52.236;5.178;2023-01-13T06:30:33;99987.81;;;7.55;100.00
58975;BME280;44751;52.236;5.178;2023-01-13T06:33:08;99988.28;;;7.58;100.00
58975;BME280;44751;52.236;5.178;2023-01-13T06:35:38;99999.75;;;7.52;100.00
58975;BME280;44751;52.236;5.178;2023-01-13T06:38:08;100004.75;;;7.55;100.00
58975;BME280;44751;52.236;5.178;2023-01-13T06:40:41;100004.25;;;7.52;100.00
58975;BME280;44751;52.236;5.178;2023-01-13T06:43:07;100001.50;;;7.60;100.00
58975;BME280;44751;52.236;5.178;2023-01-13T06:45:41;99999.84;;;7.59;100.00
58975;BME280;44751;52.236;5.178;2023-01-13T06:48:08;100011.78;;;7.56;100.00
58975;BME280;44751;52.236;5.178;2023-01-13T06:50:34;100002.34;;;7.60;100.00
58975;BME280;44751;52.236;5.178;2023-01-13T06:53:04;100000.22;;;7.56;100.00
58975;BME280;44751;52.236;5.178;2023-01-13T06:55:30;100005.03;;;7.60;100.00
58975;BME280;44751;52.236;5.178;2023-01-13T06:57:57;100017.44;;;7.61;100.00
58975;BME280;44751;52.236;5.178;2023-01-13T07:00:24;100002.09;;;7.70;100.00
58975;BME280;44751;52.236;5.178;2023-01-13T07:02:51;99994.94;;;7.62;100.00
58975;BME280;44751;52.236;5.178;2023-01-13T07:05:19;100014.41;;;7.65;100.00
58975;BME280;44751;52.236;5.178;2023-01-13T07:07:45;100009.69;;;7.67;100.00
58975;BME280;44751;52.236;5.178;2023-01-13T07:10:13;100022.50;;;7.80;100.00
58975;BME280;44751;52.236;5.178;2023-01-13T07:12:47;100012.84;;;7.70;100.00
58975;BME280;44751;52.236;5.178;2023-01-13T07:15:31;100026.28;;;7.70;100.00
58975;BME280;44751;52.236;5.178;2023-01-13T07:18:03;100034.78;;;7.74;100.00
58975;BME280;44751;52.236;5.178;2023-01-13T07:20:32;100030.44;;;7.73;100.00
58975;BME280;44751;52.236;5.178;2023-01-13T07:22:58;100034.44;;;7.77;100.00
58975;BME280;44751;52.236;5.178;2023-01-13T07:25:25;100021.28;;;7.82;100.00
58975;BME280;44751;52.236;5.178;2023-01-13T07:27:51;100026.91;;;7.72;100.00
58975;BME280;44751;52.236;5.178;2023-01-13T07:30:20;100043.41;;;7.69;100.00
58975;BME280;44751;52.236;5.178;2023-01-13T07:32:56;100022.69;;;7.55;100.00
58975;BME280;44751;52.236;5.178;2023-01-13T07:35:23;100031.94;;;7.52;100.00
58975;BME280;44751;52.236;5.178;2023-01-13T07:37:49;100048.41;;;7.49;100.00
58975;BME280;44751;52.236;5.178;2023-01-13T07:40:16;100043.09;;;7.41;100.00
58975;BME280;44751;52.236;5.178;2023-01-13T07:42:44;100051.50;;;7.38;100.00
58975;BME280;44751;52.236;5.178;2023-01-13T07:45:28;100042.50;;;7.30;100.00
58975;BME280;44751;52.236;5.178;2023-01-13T07:47:55;100046.97;;;7.38;100.00
58975;BME280;44751;52.236;5.178;2023-01-13T07:50:21;100068.22;;;7.25;100.00
58975;BME280;44751;52.236;5.178;2023-01-13T07:52:49;100068.38;;;7.23;100.00
58975;BME280;44751;52.236;5.178;2023-01-13T07:55:16;100054.69;;;7.09;100.00
58975;BME280;44751;52.236;5.178;2023-01-13T07:57:42;100068.16;;;7.01;100.00
58975;BME280;44751;52.236;5.178;2023-01-13T08:00:09;100074.31;;;7.10;100.00
58975;BME280;44751;52.236;5.178;2023-01-13T08:02:36;100064.66;;;7.01;100.00
58975;BME280;44751;52.236;5.178;2023-01-13T08:05:02;100071.31;;;7.05;100.00
58975;BME280;44751;52.236;5.178;2023-01-13T08:07:29;100079.72;;;7.02;100.00
58975;BME280;44751;52.236;5.178;2023-01-13T08:09:56;100081.50;;;7.09;100.00
58975;BME280;44751;52.236;5.178;2023-01-13T08:12:22;100104.94;;;6.84;100.00
58975;BME280;44751;52.236;5.178;2023-01-13T08:15:06;100079.81;;;6.77;100.00
58975;BME280;44751;52.236;5.178;2023-01-13T08:17:35;100083.13;;;6.87;100.00
58975;BME280;44751;52.236;5.178;2023-01-13T08:20:03;100077.16;;;6.77;100.00
58975;BME280;44751;52.236;5.178;2023-01-13T08:22:30;100101.09;;;6.78;100.00
58975;BME280;44751;52.236;5.178;2023-01-13T08:25:00;100085.66;;;6.80;100.00
58975;BME280;44751;52.236;5.178;2023-01-13T08:27:27;100080.34;;;6.72;100.00
58975;BME280;44751;52.236;5.178;2023-01-13T08:29:53;100074.31;;;6.70;100.00
58975;BME280;44751;52.236;5.178;2023-01-13T08:32:20;100086.69;;;6.79;100.00
58975;BME280;44751;52.236;5.178;2023-01-13T08:34:46;100099.75;;;6.82;100.00
58975;BME280;44751;52.236;5.178;2023-01-13T08:37:17;100091.72;;;6.82;100.00
58975;BME280;44751;52.236;5.178;2023-01-13T08:39:44;100105.94;;;6.83;100.00
58975;BME280;44751;52.236;5.178;2023-01-13T08:42:10;100099.59;;;6.76;100.00
58975;BME280;44751;52.236;5.178;2023-01-13T08:44:37;100103.97;;;6.77;100.00
58975;BME280;44751;52.236;5.178;2023-01-13T08:47:03;100111.94;;;6.93;100.00
58975;BME280;44751;52.236;5.178;2023-01-13T08:49:30;100095.03;;;6.84;100.00
58975;BME280;44751;52.236;5.178;2023-01-13T08:51:57;100093.88;;;6.79;100.00
58975;BME280;44751;52.236;5.178;2023-01-13T08:54:23;100103.72;;;6.95;100.00
58975;BME280;44751;52.236;5.178;2023-01-13T08:56:50;100106.22;;;6.96;100.00
58975;BME280;44751;52.236;5.178;2023-01-13T08:59:18;100110.06;;;6.94;100.00
58975;BME280;44751;52.236;5.178;2023-01-13T09:01:45;100117.91;;;7.04;100.00
58975;BME280;44751;52.236;5.178;2023-01-13T09:04:20;100109.00;;;7.12;100.00
58975;BME280;44751;52.236;5.178;2023-01-13T09:06:47;100132.44;;;7.18;100.00
58975;BME280;44751;52.236;5.178;2023-01-13T09:09:14;100133.66;;;7.07;100.00
58975;BME280;44751;52.236;5.178;2023-01-13T09:11:43;100134.78;;;7.21;100.00
58975;BME280;44751;52.236;5.178;2023-01-13T09:14:29;100142.00;;;7.20;100.00
58975;BME280;44751;52.236;5.178;2023-01-13T09:16:57;100135.63;;;7.21;100.00
58975;BME280;44751;52.236;5.178;2023-01-13T09:19:25;100139.31;;;7.20;100.00
58975;BME280;44751;52.236;5.178;2023-01-13T09:21:57;100152.03;;;7.27;100.00
58975;BME280;44751;52.236;5.178;2023-01-13T09:24:24;100140.16;;;7.21;100.00
58975;BME280;44751;52.236;5.178;2023-01-13T09:26:51;100143.81;;;7.28;100.00
58975;BME280;44751;52.236;5.178;2023-01-13T09:29:18;100143.84;;;7.20;100.00
58975;BME280;44751;52.236;5.178;2023-01-13T09:31:47;100146.00;;;7.25;100.00
58975;BME280;44751;52.236;5.178;2023-01-13T09:34:17;100135.75;;;7.28;100.00
58975;BME280;44751;52.236;5.178;2023-01-13T09:37:04;100147.97;;;7.31;100.00
58975;BME280;44751;52.236;5.178;2023-01-13T09:39:32;100154.28;;;7.46;100.00
58975;BME280;44751;52.236;5.178;2023-01-13T09:42:12;100152.84;;;7.35;100.00
58975;BME280;44751;52.236;5.178;2023-01-13T09:45:03;100163.41;;;7.37;100.00
58975;BME280;44751;52.236;5.178;2023-01-13T09:47:34;100160.75;;;7.29;100.00
58975;BME280;44751;52.236;5.178;2023-01-13T09:50:44;100169.97;;;7.26;100.00
58975;BME280;44751;52.236;5.178;2023-01-13T09:53:38;100163.88;;;7.41;100.00
58975;BME280;44751;52.236;5.178;2023-01-13T09:56:08;100175.75;;;7.46;100.00
58975;BME280;44751;52.236;5.178;2023-01-13T09:58:36;100166.72;;;7.39;100.00
58975;BME280;44751;52.236;5.178;2023-01-13T10:01:10;100181.13;;;7.46;100.00
58975;BME280;44751;52.236;5.178;2023-01-13T10:03:41;100185.81;;;7.53;100.00
58975;BME280;44751;52.236;5.178;2023-01-13T10:06:20;100189.66;;;7.50;100.00
58975;BME280;44751;52.236;5.178;2023-01-13T10:08:48;100197.41;;;7.45;100.00
58975;BME280;44751;52.236;5.178;2023-01-13T10:11:22;100193.53;;;7.47;100.00
58975;BME280;44751;52.236;5.178;2023-01-13T10:14:12;100204.03;;;7.57;100.00
58975;BME280;44751;52.236;5.178;2023-01-13T10:16:49;100206.38;;;7.60;100.00
58975;BME280;44751;52.236;5.178;2023-01-13T10:25:16;100215.63;;;7.58;100.00
58975;BME280;44751;52.236;5.178;2023-01-13T10:27:42;100212.38;;;7.71;100.00
58975;BME280;44751;52.236;5.178;2023-01-13T10:32:46;100225.56;;;7.81;100.00
58975;BME280;44751;52.236;5.178;2023-01-13T10:35:13;100234.81;;;7.78;100.00
58975;BME280;44751;52.236;5.178;2023-01-13T10:37:39;100226.75;;;7.78;100.00
58975;BME280;44751;52.236;5.178;2023-01-13T10:40:20;100226.53;;;7.88;100.00
58975;BME280;44751;52.236;5.178;2023-01-13T10:42:47;100221.84;;;7.90;100.00
58975;BME280;44751;52.236;5.178;2023-01-13T10:45:24;100228.81;;;7.99;100.00
58975;BME280;44751;52.236;5.178;2023-01-13T10:48:06;100238.19;;;8.04;100.00
58975;BME280;44751;52.236;5.178;2023-01-13T10:50:39;100246.38;;;8.10;100.00
58975;BME280;44751;52.236;5.178;2023-01-13T10:53:16;100230.94;;;8.12;100.00
58975;BME280;44751;52.236;5.178;2023-01-13T10:55:57;100242.38;;;8.06;100.00
58975;BME280;44751;52.236;5.178;2023-01-13T10:58:24;100246.53;;;8.09;100.00
58975;BME280;44751;52.236;5.178;2023-01-13T11:01:04;100244.34;;;8.12;100.00
58975;BME280;44751;52.236;5.178;2023-01-13T11:03:38;100244.94;;;8.23;100.00
58975;BME280;44751;52.236;5.178;2023-01-13T11:06:22;100254.16;;;8.29;100.00
58975;BME280;44751;52.236;5.178;2023-01-13T11:08:50;100239.28;;;8.18;100.00
58975;BME280;44751;52.236;5.178;2023-01-13T11:14:03;100254.31;;;8.27;100.00
58975;BME280;44751;52.236;5.178;2023-01-13T11:16:52;100290.91;;;8.36;100.00
58975;BME280;44751;52.236;5.178;2023-01-13T11:19:23;100267.06;;;8.33;100.00
58975;BME280;44751;52.236;5.178;2023-01-13T11:22:13;100259.16;;;8.32;100.00
58975;BME280;44751;52.236;5.178;2023-01-13T11:24:49;100255.09;;;8.36;100.00
58975;BME280;44751;52.236;5.178;2023-01-13T11:27:45;100273.56;;;8.39;100.00
58975;BME280;44751;52.236;5.178;2023-01-13T11:30:42;100277.19;;;8.55;100.00
58975;BME280;44751;52.236;5.178;2023-01-13T11:35:53;100295.25;;;8.37;100.00
58975;BME280;44751;52.236;5.178;2023-01-13T11:38:36;100283.84;;;8.35;100.00
58975;BME280;44751;52.236;5.178;2023-01-13T11:41:36;100293.53;;;8.45;100.00
58975;BME280;44751;52.236;5.178;2023-01-13T11:44:24;100302.97;;;8.40;100.00
58975;BME280;44751;52.236;5.178;2023-01-13T11:46:52;100296.38;;;8.43;100.00
58975;BME280;44751;52.236;5.178;2023-01-13T11:49:23;100298.13;;;8.36;100.00
58975;BME280;44751;52.236;5.178;2023-01-13T11:52:30;100299.53;;;8.47;100.00
58975;BME280;44751;52.236;5.178;2023-01-13T11:55:20;100314.50;;;8.49;100.00
58975;BME280;44751;52.236;5.178;2023-01-13T11:57:54;100303.53;;;8.51;100.00
58975;BME280;44751;52.236;5.178;2023-01-13T12:00:48;100321.38;;;8.52;100.00
58975;BME280;44751;52.236;5.178;2023-01-13T12:03:26;100303.25;;;8.46;100.00
58975;BME280;44751;52.236;5.178;2023-01-13T12:06:35;100308.34;;;8.40;100.00
58975;BME280;44751;52.236;5.178;2023-01-13T12:09:21;100343.94;;;8.43;100.00
58975;BME280;44751;52.236;5.178;2023-01-13T12:12:19;100322.06;;;8.46;100.00
58975;BME280;44751;52.236;5.178;2023-01-13T12:18:16;100340.19;;;8.52;100.00
58975;BME280;44751;52.236;5.178;2023-01-13T12:23:45;100332.09;;;8.60;100.00
58975;BME280;44751;52.236;5.178;2023-01-13T12:26:15;100342.34;;;8.57;100.00
58975;BME280;44751;52.236;5.178;2023-01-13T12:29:08;100337.19;;;8.47;100.00
58975;BME280;44751;52.236;5.178;2023-01-13T12:31:42;100347.91;;;8.55;100.00
58975;BME280;44751;52.236;5.178;2023-01-13T12:34:23;100352.75;;;8.60;100.00
58975;BME280;44751;52.236;5.178;2023-01-13T12:37:09;100359.81;;;8.61;100.00
58975;BME280;44751;52.236;5.178;2023-01-13T12:45:29;100358.13;;;8.60;100.00
58975;BME280;44751;52.236;5.178;2023-01-13T12:47:57;100363.28;;;8.70;100.00
58975;BME280;44751;52.236;5.178;2023-01-13T12:52:58;100362.50;;;8.61;100.00
58975;BME280;44751;52.236;5.178;2023-01-13T12:55:26;100373.03;;;8.71;100.00
58975;BME280;44751;52.236;5.178;2023-01-13T13:05:39;100395.09;;;8.66;100.00
58975;BME280;44751;52.236;5.178;2023-01-13T13:08:15;100410.03;;;8.69;100.00
58975;BME280;44751;52.236;5.178;2023-01-13T13:14:10;100413.06;;;8.65;100.00
58975;BME280;44751;52.236;5.178;2023-01-13T13:16:45;100429.66;;;8.69;100.00
58975;BME280;44751;52.236;5.178;2023-01-13T13:25:13;100440.81;;;8.89;100.00
58975;BME280;44751;52.236;5.178;2023-01-13T13:30:29;100435.50;;;8.81;100.00
58975;BME280;44751;52.236;5.178;2023-01-13T13:33:07;100440.75;;;8.74;100.00
58975;BME280;44751;52.236;5.178;2023-01-13T13:35:50;100441.41;;;8.76;100.00
58975;BME280;44751;52.236;5.178;2023-01-13T13:41:23;100454.69;;;8.78;100.00
58975;BME280;44751;52.236;5.178;2023-01-13T13:44:14;100453.06;;;8.69;100.00
58975;BME280;44751;52.236;5.178;2023-01-13T13:47:02;100466.63;;;8.75;100.00
58975;BME280;44751;52.236;5.178;2023-01-13T13:49:42;100458.25;;;8.70;100.00
58975;BME280;44751;52.236;5.178;2023-01-13T13:55:07;100468.09;;;8.55;100.00
58975;BME280;44751;52.236;5.178;2023-01-13T13:57:37;100479.00;;;8.53;100.00
58975;BME280;44751;52.236;5.178;2023-01-13T14:00:33;100484.06;;;8.56;100.00
58975;BME280;44751;52.236;5.178;2023-01-13T14:03:06;100486.75;;;8.56;100.00
58975;BME280;44751;52.236;5.178;2023-01-13T14:05:55;100489.91;;;8.60;100.00
58975;BME280;44751;52.236;5.178;2023-01-13T14:08:22;100513.63;;;8.56;100.00
58975;BME280;44751;52.236;5.178;2023-01-13T14:10:49;100516.75;;;8.68;100.00
58975;BME280;44751;52.236;5.178;2023-01-13T14:13:30;100514.28;;;8.50;100.00
58975;BME280;44751;52.236;5.178;2023-01-13T14:16:00;100522.50;;;8.48;100.00
58975;BME280;44751;52.236;5.178;2023-01-13T14:18:29;100528.91;;;8.56;100.00
58975;BME280;44751;52.236;5.178;2023-01-13T14:21:04;100526.22;;;8.56;100.00
58975;BME280;44751;52.236;5.178;2023-01-13T14:23:49;100534.78;;;8.51;100.00
58975;BME280;44751;52.236;5.178;2023-01-13T14:26:17;100550.72;;;8.52;100.00
58975;BME280;44751;52.236;5.178;2023-01-13T14:28:43;100553.78;;;8.49;100.00
58975;BME280;44751;52.236;5.178;2023-01-13T14:31:12;100552.47;;;8.54;100.00
58975;BME280;44751;52.236;5.178;2023-01-13T14:33:43;100556.31;;;8.43;100.00
58975;BME280;44751;52.236;5.178;2023-01-13T14:36:16;100564.88;;;8.46;100.00